sensor_id;sensor_type;location;lat;lon;timestamp;pressure;altitude;pressure_sealevel;temperature;humidity
55990;BME280;41875;55.806;38.082;2022-09-09T10:11:36;100392.00;;;14.41;34.71
55990;BME280;41875;55.806;38.082;2022-09-09T10:14:21;100403.00;;;14.46;35.17
55990;BME280;41875;55.806;38.082;2022-09-09T10:17:13;100397.19;;;14.59;35.16
55990;BME280;41875;55.806;38.082;2022-09-09T10:19:54;100413.91;;;14.18;35.83
55990;BME280;41875;55.806;38.082;2022-09-09T10:22:32;100409.31;;;13.41;36.55
55990;BME280;41875;55.806;38.082;2022-09-09T10:25:23;100410.50;;;14.42;35.74
55990;BME280;41875;55.806;38.082;2022-09-09T10:28:10;100410.84;;;14.47;35.67
55990;BME280;41875;55.806;38.082;2022-09-09T10:30:52;100405.44;;;15.23;34.43
55990;BME280;41875;55.806;38.082;2022-09-09T10:33:31;100401.19;;;16.27;32.11
55990;BME280;41875;55.806;38.082;2022-09-09T10:36:12;100416.31;;;15.05;33.01
55990;BME280;41875;55.806;38.082;2022-09-09T10:38:42;100407.63;;;15.20;33.37
55990;BME280;41875;55.806;38.082;2022-09-09T10:41:18;100414.63;;;13.94;35.88
55990;BME280;41875;55.806;38.082;2022-09-09T10:44:20;100408.56;;;14.18;36.43
55990;BME280;41875;55.806;38.082;2022-09-09T10:47:03;100401.50;;;14.43;35.70
55990;BME280;41875;55.806;38.082;2022-09-09T10:49:55;100410.63;;;14.32;36.05
55990;BME280;41875;55.806;38.082;2022-09-09T10:52:33;100419.72;;;14.64;35.33
55990;BME280;41875;55.806;38.082;2022-09-09T10:55:11;100415.66;;;15.12;33.29
55990;BME280;41875;55.806;38.082;2022-09-09T10:57:45;100418.88;;;14.64;34.78
55990;BME280;41875;55.806;38.082;2022-09-09T11:00:18;100410.59;;;14.24;36.50
55990;BME280;41875;55.806;38.082;2022-09-09T11:02:51;100401.28;;;15.29;34.75
55990;BME280;41875;55.806;38.082;2022-09-09T11:05:25;100393.47;;;15.19;34.91
55990;BME280;41875;55.806;38.082;2022-09-09T11:07:57;100406.81;;;15.03;34.84
55990;BME280;41875;55.806;38.082;2022-09-09T11:10:35;100412.41;;;14.24;36.52
55990;BME280;41875;55.806;38.082;2022-09-09T11:13:13;100399.44;;;14.72;36.12
55990;BME280;41875;55.806;38.082;2022-09-09T11:15:48;100421.22;;;14.67;35.46
55990;BME280;41875;55.806;38.082;2022-09-09T11:18:20;100404.53;;;14.06;36.25
55990;BME280;41875;55.806;38.082;2022-09-09T11:20:53;100420.81;;;13.68;37.09
55990;BME280;41875;55.806;38.082;2022-09-09T11:23:28;100420.91;;;14.19;35.93
55990;BME280;41875;55.806;38.082;2022-09-09T11:26:01;100406.09;;;15.42;33.60
55990;BME280;41875;55.806;38.082;2022-09-09T11:28:42;100411.25;;;15.68;33.20
55990;BME280;41875;55.806;38.082;2022-09-09T11:31:27;100400.25;;;16.51;31.63
55990;BME280;41875;55.806;38.082;2022-09-09T11:34:19;100411.25;;;15.60;32.14
55990;BME280;41875;55.806;38.082;2022-09-09T11:37:17;100398.22;;;16.53;30.38
55990;BME280;41875;55.806;38.082;2022-09-09T11:40:15;100394.31;;;16.87;30.20
55990;BME280;41875;55.806;38.082;2022-09-09T11:42:46;100400.81;;;16.70;30.06
55990;BME280;41875;55.806;38.082;2022-09-09T11:45:22;100405.78;;;15.20;32.50
55990;BME280;41875;55.806;38.082;2022-09-09T11:47:55;100417.63;;;15.51;32.49
55990;BME280;41875;55.806;38.082;2022-09-09T11:50:32;100409.47;;;15.03;33.25
55990;BME280;41875;55.806;38.082;2022-09-09T11:53:18;100406.19;;;14.58;34.35
55990;BME280;41875;55.806;38.082;2022-09-09T11:56:08;100412.91;;;14.70;33.88
55990;BME280;41875;55.806;38.082;2022-09-09T11:58:41;100406.16;;;14.41;34.14
55990;BME280;41875;55.806;38.082;2022-09-09T12:01:33;100414.75;;;14.18;35.20
55990;BME280;41875;55.806;38.082;2022-09-09T12:07:30;100405.50;;;14.47;34.59
55990;BME280;41875;55.806;38.082;2022-09-09T12:10:04;100405.34;;;14.49;34.01
55990;BME280;41875;55.806;38.082;2022-09-09T12:12:34;100410.41;;;15.51;30.74
55990;BME280;41875;55.806;38.082;2022-09-09T12:15:25;100395.25;;;15.44;32.04
55990;BME280;41875;55.806;38.082;2022-09-09T12:17:57;100397.75;;;16.50;29.96
55990;BME280;41875;55.806;38.082;2022-09-09T12:20:34;100397.44;;;16.99;29.55
55990;BME280;41875;55.806;38.082;2022-09-09T12:23:18;100404.94;;;16.18;30.94
55990;BME280;41875;55.806;38.082;2022-09-09T12:25:55;100399.94;;;14.75;32.70
55990;BME280;41875;55.806;38.082;2022-09-09T12:28:45;100406.72;;;14.10;34.31
55990;BME280;41875;55.806;38.082;2022-09-09T12:31:19;100411.13;;;13.93;33.02
55990;BME280;41875;55.806;38.082;2022-09-09T12:33:51;100407.69;;;14.09;32.69
55990;BME280;41875;55.806;38.082;2022-09-09T12:36:30;100396.72;;;14.12;33.02
55990;BME280;41875;55.806;38.082;2022-09-09T12:39:16;100397.66;;;14.46;33.01
55990;BME280;41875;55.806;38.082;2022-09-09T12:41:53;100409.53;;;14.60;33.78
55990;BME280;41875;55.806;38.082;2022-09-09T12:44:25;100403.13;;;14.87;33.73
55990;BME280;41875;55.806;38.082;2022-09-09T12:46:58;100409.94;;;14.90;33.83
55990;BME280;41875;55.806;38.082;2022-09-09T12:49:34;100404.03;;;14.61;34.90
55990;BME280;41875;55.806;38.082;2022-09-09T12:52:08;100408.91;;;14.66;34.85
55990;BME280;41875;55.806;38.082;2022-09-09T12:54:44;100407.69;;;14.44;34.97
55990;BME280;41875;55.806;38.082;2022-09-09T12:57:15;100407.44;;;14.21;34.87
55990;BME280;41875;55.806;38.082;2022-09-09T12:59:44;100406.31;;;14.40;34.34
55990;BME280;41875;55.806;38.082;2022-09-09T13:02:21;100403.56;;;14.15;34.52
55990;BME280;41875;55.806;38.082;2022-09-09T13:04:52;100405.41;;;13.80;34.08
55990;BME280;41875;55.806;38.082;2022-09-09T13:07:22;100402.03;;;14.04;34.24
55990;BME280;41875;55.806;38.082;2022-09-09T13:09:53;100399.94;;;14.24;34.21
55990;BME280;41875;55.806;38.082;2022-09-09T13:12:22;100410.75;;;13.88;34.98
55990;BME280;41875;55.806;38.082;2022-09-09T13:14:53;100407.16;;;14.40;34.22
55990;BME280;41875;55.806;38.082;2022-09-09T13:17:24;100414.47;;;14.89;33.17
55990;BME280;41875;55.806;38.082;2022-09-09T13:19:56;100408.63;;;15.02;33.23
55990;BME280;41875;55.806;38.082;2022-09-09T13:22:30;100405.59;;;15.30;33.06
55990;BME280;41875;55.806;38.082;2022-09-09T13:25:13;100397.28;;;15.17;32.83
55990;BME280;41875;55.806;38.082;2022-09-09T13:27:53;100402.00;;;14.47;33.44
55990;BME280;41875;55.806;38.082;2022-09-09T13:30:24;100400.28;;;14.29;34.12
55990;BME280;41875;55.806;38.082;2022-09-09T13:33:01;100400.38;;;14.03;34.18
55990;BME280;41875;55.806;38.082;2022-09-09T13:35:30;100410.16;;;13.94;34.43
55990;BME280;41875;55.806;38.082;2022-09-09T13:37:59;100407.16;;;13.97;34.57
55990;BME280;41875;55.806;38.082;2022-09-09T13:40:37;100405.38;;;14.06;34.70
55990;BME280;41875;55.806;38.082;2022-09-09T13:43:18;100404.50;;;13.97;35.19
55990;BME280;41875;55.806;38.082;2022-09-09T13:45:53;100406.78;;;14.27;34.54
55990;BME280;41875;55.806;38.082;2022-09-09T13:48:26;100412.56;;;14.65;33.94
55990;BME280;41875;55.806;38.082;2022-09-09T13:51:01;100400.69;;;14.43;34.45
55990;BME280;41875;55.806;38.082;2022-09-09T13:53:32;100402.59;;;14.24;34.69
55990;BME280;41875;55.806;38.082;2022-09-09T13:56:02;100400.19;;;14.05;35.63
55990;BME280;41875;55.806;38.082;2022-09-09T13:58:30;100414.09;;;14.25;35.78
55990;BME280;41875;55.806;38.082;2022-09-09T14:00:59;100404.09;;;14.18;35.83
55990;BME280;41875;55.806;38.082;2022-09-09T14:03:27;100396.59;;;14.14;35.64
55990;BME280;41875;55.806;38.082;2022-09-09T14:05:56;100395.84;;;14.03;35.85
55990;BME280;41875;55.806;38.082;2022-09-09T14:08:26;100394.75;;;14.14;35.80
55990;BME280;41875;55.806;38.082;2022-09-09T14:10:55;100395.97;;;14.37;35.70
55990;BME280;41875;55.806;38.082;2022-09-09T14:13:26;100392.44;;;14.20;35.22
55990;BME280;41875;55.806;38.082;2022-09-09T14:15:55;100393.38;;;14.53;34.33
55990;BME280;41875;55.806;38.082;2022-09-09T14:18:23;100402.22;;;14.62;34.40
55990;BME280;41875;55.806;38.082;2022-09-09T14:20:52;100406.94;;;14.85;34.13
55990;BME280;41875;55.806;38.082;2022-09-09T14:23:20;100396.03;;;14.53;35.07
55990;BME280;41875;55.806;38.082;2022-09-09T14:25:51;100403.09;;;14.79;34.72
55990;BME280;41875;55.806;38.082;2022-09-09T14:28:20;100404.63;;;14.90;34.38
55990;BME280;41875;55.806;38.082;2022-09-09T14:31:10;100408.28;;;15.05;34.26
55990;BME280;41875;55.806;38.082;2022-09-09T14:33:40;100407.75;;;14.77;34.61
55990;BME280;41875;55.806;38.082;2022-09-09T14:36:09;100412.59;;;14.30;35.39
55990;BME280;41875;55.806;38.082;2022-09-09T14:38:37;100402.50;;;13.99;36.16
55990;BME280;41875;55.806;38.082;2022-09-09T14:41:06;100405.28;;;14.24;35.80
55990;BME280;41875;55.806;38.082;2022-09-09T14:43:35;100405.53;;;14.05;36.30
55990;BME280;41875;55.806;38.082;2022-09-09T14:46:07;100404.94;;;13.84;36.97
55990;BME280;41875;55.806;38.082;2022-09-09T14:48:38;100411.72;;;14.13;36.48
55990;BME280;41875;55.806;38.082;2022-09-09T14:51:08;100407.56;;;14.11;36.58
55990;BME280;41875;55.806;38.082;2022-09-09T14:53:37;100397.38;;;14.06;36.80
55990;BME280;41875;55.806;38.082;2022-09-09T14:56:07;100402.25;;;14.19;36.20
55990;BME280;41875;55.806;38.082;2022-09-09T14:58:37;100403.53;;;14.07;36.21
55990;BME280;41875;55.806;38.082;2022-09-09T15:01:07;100402.34;;;14.01;36.66
55990;BME280;41875;55.806;38.082;2022-09-09T15:03:39;100401.78;;;13.89;36.58
55990;BME280;41875;55.806;38.082;2022-09-09T15:06:10;100395.97;;;13.94;36.49
55990;BME280;41875;55.806;38.082;2022-09-09T15:08:41;100399.63;;;13.93;36.76
55990;BME280;41875;55.806;38.082;2022-09-09T15:11:11;100394.16;;;13.94;36.26
55990;BME280;41875;55.806;38.082;2022-09-09T15:13:41;100398.44;;;13.87;36.43
55990;BME280;41875;55.806;38.082;2022-09-09T15:16:11;100398.63;;;13.85;36.60
55990;BME280;41875;55.806;38.082;2022-09-09T15:18:42;100400.44;;;13.85;36.97
55990;BME280;41875;55.806;38.082;2022-09-09T15:21:13;100403.44;;;13.82;37.19
55990;BME280;41875;55.806;38.082;2022-09-09T15:23:43;100401.56;;;13.74;37.53
55990;BME280;41875;55.806;38.082;2022-09-09T15:26:11;100411.06;;;13.85;37.35
55990;BME280;41875;55.806;38.082;2022-09-09T15:28:42;100410.53;;;13.73;37.75
55990;BME280;41875;55.806;38.082;2022-09-09T15:31:13;100407.88;;;13.73;37.35
55990;BME280;41875;55.806;38.082;2022-09-09T15:33:48;100407.03;;;13.72;37.65
55990;BME280;41875;55.806;38.082;2022-09-09T15:36:19;100406.50;;;13.69;37.60
55990;BME280;41875;55.806;38.082;2022-09-09T15:38:49;100411.06;;;13.85;37.40
55990;BME280;41875;55.806;38.082;2022-09-09T15:41:17;100411.41;;;14.16;36.98
55990;BME280;41875;55.806;38.082;2022-09-09T15:43:48;100416.53;;;13.75;37.34
55990;BME280;41875;55.806;38.082;2022-09-09T15:46:29;100417.31;;;13.67;37.83
55990;BME280;41875;55.806;38.082;2022-09-09T15:49:05;100411.16;;;13.67;37.80
55990;BME280;41875;55.806;38.082;2022-09-09T15:51:34;100413.72;;;13.77;37.67
55990;BME280;41875;55.806;38.082;2022-09-09T15:54:10;100424.34;;;13.50;38.31
55990;BME280;41875;55.806;38.082;2022-09-09T15:56:40;100421.22;;;13.37;38.68
55990;BME280;41875;55.806;38.082;2022-09-09T15:59:09;100419.97;;;13.23;38.90
55990;BME280;41875;55.806;38.082;2022-09-09T16:01:38;100431.00;;;13.10;39.34
55990;BME280;41875;55.806;38.082;2022-09-09T16:04:11;100436.41;;;12.82;39.96
55990;BME280;41875;55.806;38.082;2022-09-09T16:06:41;100436.56;;;12.99;39.81
55990;BME280;41875;55.806;38.082;2022-09-09T16:09:09;100441.66;;;12.92;39.77
55990;BME280;41875;55.806;38.082;2022-09-09T16:11:38;100430.56;;;12.96;39.65
55990;BME280;41875;55.806;38.082;2022-09-09T16:14:07;100438.97;;;13.10;39.28
55990;BME280;41875;55.806;38.082;2022-09-09T16:16:36;100437.16;;;13.10;39.21
55990;BME280;41875;55.806;38.082;2022-09-09T16:19:05;100438.75;;;13.21;38.99
55990;BME280;41875;55.806;38.082;2022-09-09T16:21:37;100448.13;;;13.07;39.30
55990;BME280;41875;55.806;38.082;2022-09-09T16:24:08;100446.28;;;13.08;39.28
55990;BME280;41875;55.806;38.082;2022-09-09T16:26:38;100450.59;;;13.09;39.33
55990;BME280;41875;55.806;38.082;2022-09-09T16:29:07;100459.06;;;13.04;39.42
55990;BME280;41875;55.806;38.082;2022-09-09T16:31:37;100452.72;;;12.87;39.80
55990;BME280;41875;55.806;38.082;2022-09-09T16:34:07;100463.19;;;12.71;40.02
55990;BME280;41875;55.806;38.082;2022-09-09T16:36:38;100453.94;;;12.75;39.85
55990;BME280;41875;55.806;38.082;2022-09-09T16:39:09;100462.66;;;12.67;39.96
55990;BME280;41875;55.806;38.082;2022-09-09T16:41:39;100459.97;;;12.49;40.45
55990;BME280;41875;55.806;38.082;2022-09-09T16:44:09;100471.81;;;12.55;40.38
55990;BME280;41875;55.806;38.082;2022-09-09T16:46:39;100472.97;;;12.52;40.39
55990;BME280;41875;55.806;38.082;2022-09-09T16:49:10;100466.78;;;12.52;40.79
55990;BME280;41875;55.806;38.082;2022-09-09T16:51:42;100462.69;;;12.57;40.79
55990;BME280;41875;55.806;38.082;2022-09-09T16:54:11;100476.22;;;12.64;40.66
55990;BME280;41875;55.806;38.082;2022-09-09T16:56:43;100469.09;;;12.64;40.63
55990;BME280;41875;55.806;38.082;2022-09-09T16:59:13;100468.56;;;12.61;40.52
55990;BME280;41875;55.806;38.082;2022-09-09T17:01:43;100475.34;;;12.73;40.46
55990;BME280;41875;55.806;38.082;2022-09-09T17:04:15;100470.50;;;12.69;40.44
55990;BME280;41875;55.806;38.082;2022-09-09T17:06:50;100473.38;;;12.75;40.37
55990;BME280;41875;55.806;38.082;2022-09-09T17:09:20;100475.88;;;12.77;40.31
55990;BME280;41875;55.806;38.082;2022-09-09T17:11:50;100481.13;;;12.69;40.67
55990;BME280;41875;55.806;38.082;2022-09-09T17:14:21;100476.00;;;12.57;41.02
55990;BME280;41875;55.806;38.082;2022-09-09T17:16:51;100482.53;;;12.63;41.10
55990;BME280;41875;55.806;38.082;2022-09-09T17:19:19;100481.91;;;12.79;40.76
55990;BME280;41875;55.806;38.082;2022-09-09T17:21:49;100474.50;;;12.73;40.68
55990;BME280;41875;55.806;38.082;2022-09-09T17:24:38;100478.59;;;12.67;41.00
55990;BME280;41875;55.806;38.082;2022-09-09T17:27:08;100483.47;;;12.72;41.04
55990;BME280;41875;55.806;38.082;2022-09-09T17:29:36;100479.94;;;12.81;40.75
55990;BME280;41875;55.806;38.082;2022-09-09T17:32:05;100478.22;;;12.62;41.37
55990;BME280;41875;55.806;38.082;2022-09-09T17:34:35;100486.94;;;12.54;41.62
55990;BME280;41875;55.806;38.082;2022-09-09T17:37:06;100482.38;;;12.46;41.91
55990;BME280;41875;55.806;38.082;2022-09-09T17:39:35;100474.63;;;12.53;41.69
55990;BME280;41875;55.806;38.082;2022-09-09T17:42:04;100462.47;;;12.50;42.04
55990;BME280;41875;55.806;38.082;2022-09-09T17:44:34;100484.78;;;12.68;41.68
55990;BME280;41875;55.806;38.082;2022-09-09T17:47:03;100480.28;;;12.68;41.61
55990;BME280;41875;55.806;38.082;2022-09-09T17:49:33;100491.81;;;12.59;41.83
55990;BME280;41875;55.806;38.082;2022-09-09T17:52:02;100481.63;;;12.54;41.80
55990;BME280;41875;55.806;38.082;2022-09-09T17:54:32;100493.09;;;12.55;41.93
55990;BME280;41875;55.806;38.082;2022-09-09T17:57:01;100497.88;;;12.51;42.22
55990;BME280;41875;55.806;38.082;2022-09-09T17:59:29;100495.53;;;12.66;41.74
55990;BME280;41875;55.806;38.082;2022-09-09T18:01:58;100490.75;;;12.42;42.27
55990;BME280;41875;55.806;38.082;2022-09-09T18:04:28;100496.38;;;12.39;42.45
55990;BME280;41875;55.806;38.082;2022-09-09T18:06:57;100493.19;;;12.25;42.68
55990;BME280;41875;55.806;38.082;2022-09-09T18:09:27;100500.63;;;12.22;43.07
55990;BME280;41875;55.806;38.082;2022-09-09T18:11:58;100494.25;;;12.14;42.89
55990;BME280;41875;55.806;38.082;2022-09-09T18:14:30;100493.25;;;12.15;42.90
55990;BME280;41875;55.806;38.082;2022-09-09T18:17:00;100490.53;;;12.25;42.57
55990;BME280;41875;55.806;38.082;2022-09-09T18:19:31;100496.91;;;12.04;43.02
55990;BME280;41875;55.806;38.082;2022-09-09T18:22:03;100478.88;;;12.08;42.78
55990;BME280;41875;55.806;38.082;2022-09-09T18:24:33;100489.50;;;12.08;42.70
55990;BME280;41875;55.806;38.082;2022-09-09T18:27:04;100483.47;;;11.96;42.77
55990;BME280;41875;55.806;38.082;2022-09-09T18:29:33;100492.31;;;11.97;42.90
55990;BME280;41875;55.806;38.082;2022-09-09T18:32:02;100481.03;;;11.65;43.38
55990;BME280;41875;55.806;38.082;2022-09-09T18:34:32;100497.25;;;11.62;43.63
55990;BME280;41875;55.806;38.082;2022-09-09T18:37:02;100492.22;;;11.59;43.77
55990;BME280;41875;55.806;38.082;2022-09-09T18:39:31;100488.72;;;11.58;43.68
55990;BME280;41875;55.806;38.082;2022-09-09T18:42:00;100489.66;;;12.07;42.65
55990;BME280;41875;55.806;38.082;2022-09-09T18:44:32;100486.84;;;11.98;42.94
55990;BME280;41875;55.806;38.082;2022-09-09T18:47:01;100493.66;;;12.11;42.83
55990;BME280;41875;55.806;38.082;2022-09-09T18:49:31;100475.94;;;12.11;42.63
55990;BME280;41875;55.806;38.082;2022-09-09T18:52:01;100489.03;;;12.23;42.54
55990;BME280;41875;55.806;38.082;2022-09-09T18:54:31;100489.75;;;12.15;42.64
55990;BME280;41875;55.806;38.082;2022-09-09T18:57:00;100498.00;;;12.12;42.90
55990;BME280;41875;55.806;38.082;2022-09-09T18:59:31;100494.53;;;12.11;42.98
55990;BME280;41875;55.806;38.082;2022-09-09T19:01:59;100504.25;;;12.20;42.82
55990;BME280;41875;55.806;38.082;2022-09-09T19:04:29;100502.47;;;12.21;42.78
55990;BME280;41875;55.806;38.082;2022-09-09T19:06:59;100509.28;;;12.24;42.96
55990;BME280;41875;55.806;38.082;2022-09-09T19:09:31;100507.25;;;12.17;43.07
55990;BME280;41875;55.806;38.082;2022-09-09T19:12:00;100503.44;;;12.20;42.86
55990;BME280;41875;55.806;38.082;2022-09-09T19:14:30;100504.53;;;12.27;42.79
55990;BME280;41875;55.806;38.082;2022-09-09T19:16:59;100501.56;;;12.30;42.85
55990;BME280;41875;55.806;38.082;2022-09-09T19:19:29;100500.88;;;12.28;42.62
55990;BME280;41875;55.806;38.082;2022-09-09T19:21:59;100500.56;;;12.41;42.39
55990;BME280;41875;55.806;38.082;2022-09-09T19:24:31;100506.28;;;12.46;42.32
55990;BME280;41875;55.806;38.082;2022-09-09T19:27:02;100498.06;;;12.40;42.57
55990;BME280;41875;55.806;38.082;2022-09-09T19:29:35;100508.38;;;12.43;42.53
55990;BME280;41875;55.806;38.082;2022-09-09T19:32:05;100507.56;;;12.42;42.43
55990;BME280;41875;55.806;38.082;2022-09-09T19:34:54;100503.41;;;12.30;42.91
55990;BME280;41875;55.806;38.082;2022-09-09T19:37:23;100500.59;;;12.31;42.96
55990;BME280;41875;55.806;38.082;2022-09-09T19:39:51;100504.09;;;12.32;43.08
55990;BME280;41875;55.806;38.082;2022-09-09T19:42:20;100511.13;;;12.23;43.20
55990;BME280;41875;55.806;38.082;2022-09-09T19:44:50;100505.94;;;12.22;43.28
55990;BME280;41875;55.806;38.082;2022-09-09T19:47:18;100508.31;;;12.25;43.37
55990;BME280;41875;55.806;38.082;2022-09-09T19:49:50;100513.91;;;12.22;43.13
55990;BME280;41875;55.806;38.082;2022-09-09T19:52:18;100519.22;;;12.22;43.09
55990;BME280;41875;55.806;38.082;2022-09-09T19:54:47;100513.06;;;12.31;42.55
55990;BME280;41875;55.806;38.082;2022-09-09T19:57:15;100507.31;;;12.35;42.65
55990;BME280;41875;55.806;38.082;2022-09-09T19:59:45;100510.94;;;12.34;42.77
55990;BME280;41875;55.806;38.082;2022-09-09T20:02:15;100513.19;;;12.29;43.15
55990;BME280;41875;55.806;38.082;2022-09-09T20:04:44;100518.50;;;12.29;42.66
55990;BME280;41875;55.806;38.082;2022-09-09T20:07:12;100510.94;;;12.34;42.66
55990;BME280;41875;55.806;38.082;2022-09-09T20:09:40;100507.88;;;12.29;42.79
55990;BME280;41875;55.806;38.082;2022-09-09T20:12:09;100523.38;;;12.34;42.81
55990;BME280;41875;55.806;38.082;2022-09-09T20:14:37;100517.09;;;12.25;42.92
55990;BME280;41875;55.806;38.082;2022-09-09T20:17:06;100524.94;;;12.27;42.90
55990;BME280;41875;55.806;38.082;2022-09-09T20:19:37;100524.44;;;12.13;43.26
55990;BME280;41875;55.806;38.082;2022-09-09T20:22:07;100528.31;;;12.19;43.13
55990;BME280;41875;55.806;38.082;2022-09-09T20:24:35;100523.16;;;12.17;43.08
55990;BME280;41875;55.806;38.082;2022-09-09T20:27:04;100529.50;;;11.87;43.79
55990;BME280;41875;55.806;38.082;2022-09-09T20:29:35;100533.69;;;11.99;43.71
55990;BME280;41875;55.806;38.082;2022-09-09T20:32:03;100535.34;;;12.00;43.22
55990;BME280;41875;55.806;38.082;2022-09-09T20:34:33;100542.47;;;12.10;43.21
55990;BME280;41875;55.806;38.082;2022-09-09T20:37:03;100531.72;;;11.92;43.35
55990;BME280;41875;55.806;38.082;2022-09-09T20:39:31;100530.03;;;12.00;43.47
55990;BME280;41875;55.806;38.082;2022-09-09T20:42:02;100542.75;;;11.87;43.62
55990;BME280;41875;55.806;38.082;2022-09-09T20:44:30;100540.53;;;12.02;43.21
55990;BME280;41875;55.806;38.082;2022-09-09T20:46:59;100548.88;;;11.97;43.30
55990;BME280;41875;55.806;38.082;2022-09-09T20:49:32;100541.78;;;11.78;43.89
55990;BME280;41875;55.806;38.082;2022-09-09T20:52:03;100541.09;;;11.86;43.77
55990;BME280;41875;55.806;38.082;2022-09-09T20:54:33;100537.19;;;11.90;43.63
55990;BME280;41875;55.806;38.082;2022-09-09T20:57:04;100538.16;;;11.89;43.58
55990;BME280;41875;55.806;38.082;2022-09-09T20:59:33;100543.03;;;11.84;43.85
55990;BME280;41875;55.806;38.082;2022-09-09T21:02:08;100539.41;;;11.95;43.41
55990;BME280;41875;55.806;38.082;2022-09-09T21:04:37;100548.63;;;11.90;43.71
55990;BME280;41875;55.806;38.082;2022-09-09T21:07:07;100547.09;;;12.08;43.16
55990;BME280;41875;55.806;38.082;2022-09-09T21:09:35;100534.25;;;11.93;43.60
55990;BME280;41875;55.806;38.082;2022-09-09T21:12:04;100543.03;;;12.03;43.34
55990;BME280;41875;55.806;38.082;2022-09-09T21:14:32;100545.34;;;12.26;42.95
55990;BME280;41875;55.806;38.082;2022-09-09T21:17:01;100548.63;;;12.00;43.67
55990;BME280;41875;55.806;38.082;2022-09-09T21:19:29;100545.66;;;12.23;43.05
55990;BME280;41875;55.806;38.082;2022-09-09T21:21:58;100551.53;;;11.97;43.99
55990;BME280;41875;55.806;38.082;2022-09-09T21:24:28;100550.56;;;11.88;44.16
55990;BME280;41875;55.806;38.082;2022-09-09T21:26:56;100539.13;;;11.88;44.36
55990;BME280;41875;55.806;38.082;2022-09-09T21:29:26;100551.56;;;11.87;44.43
55990;BME280;41875;55.806;38.082;2022-09-09T21:31:55;100541.50;;;11.91;44.21
55990;BME280;41875;55.806;38.082;2022-09-09T21:34:23;100540.81;;;11.89;43.61
55990;BME280;41875;55.806;38.082;2022-09-09T21:36:52;100538.16;;;11.79;44.08
55990;BME280;41875;55.806;38.082;2022-09-09T21:39:20;100544.16;;;11.81;43.67
55990;BME280;41875;55.806;38.082;2022-09-09T21:41:50;100553.25;;;11.79;44.04
55990;BME280;41875;55.806;38.082;2022-09-09T21:44:19;100550.03;;;11.75;44.03
55990;BME280;41875;55.806;38.082;2022-09-09T21:46:47;100548.78;;;11.69;44.40
55990;BME280;41875;55.806;38.082;2022-09-09T21:49:15;100554.25;;;11.58;44.51
55990;BME280;41875;55.806;38.082;2022-09-09T21:51:44;100557.44;;;11.52;45.49
55990;BME280;41875;55.806;38.082;2022-09-09T21:54:12;100557.88;;;11.77;45.17
55990;BME280;41875;55.806;38.082;2022-09-09T21:56:41;100554.25;;;11.68;45.90
55990;BME280;41875;55.806;38.082;2022-09-09T21:59:10;100561.88;;;11.90;44.98
55990;BME280;41875;55.806;38.082;2022-09-09T22:01:39;100560.38;;;11.58;45.82
55990;BME280;41875;55.806;38.082;2022-09-09T22:04:08;100559.13;;;11.53;46.24
55990;BME280;41875;55.806;38.082;2022-09-09T22:06:36;100558.28;;;11.42;46.12
55990;BME280;41875;55.806;38.082;2022-09-09T22:09:05;100555.91;;;11.39;46.49
55990;BME280;41875;55.806;38.082;2022-09-09T22:11:34;100564.72;;;11.30;46.57
55990;BME280;41875;55.806;38.082;2022-09-09T22:14:02;100563.72;;;11.31;46.33
55990;BME280;41875;55.806;38.082;2022-09-09T22:16:32;100564.56;;;11.41;46.17
55990;BME280;41875;55.806;38.082;2022-09-09T22:19:01;100561.66;;;11.44;46.39
55990;BME280;41875;55.806;38.082;2022-09-09T22:21:30;100566.38;;;11.31;46.78
55990;BME280;41875;55.806;38.082;2022-09-09T22:24:01;100556.03;;;11.28;46.53
55990;BME280;41875;55.806;38.082;2022-09-09T22:26:32;100555.59;;;11.13;46.67
55990;BME280;41875;55.806;38.082;2022-09-09T22:29:01;100559.22;;;11.02;46.63
55990;BME280;41875;55.806;38.082;2022-09-09T22:31:32;100551.81;;;11.06;47.21
55990;BME280;41875;55.806;38.082;2022-09-09T22:34:01;100557.94;;;10.96;47.13
55990;BME280;41875;55.806;38.082;2022-09-09T22:36:29;100558.13;;;11.44;45.04
55990;BME280;41875;55.806;38.082;2022-09-09T22:38:59;100560.06;;;11.12;46.81
55990;BME280;41875;55.806;38.082;2022-09-09T22:41:27;100553.81;;;11.23;46.30
55990;BME280;41875;55.806;38.082;2022-09-09T22:43:58;100561.47;;;11.07;46.61
55990;BME280;41875;55.806;38.082;2022-09-09T22:46:27;100558.16;;;10.74;47.58
55990;BME280;41875;55.806;38.082;2022-09-09T22:48:57;100558.00;;;10.75;47.54
55990;BME280;41875;55.806;38.082;2022-09-09T22:51:26;100556.03;;;10.67;47.72
55990;BME280;41875;55.806;38.082;2022-09-09T22:53:54;100543.38;;;10.71;47.25
55990;BME280;41875;55.806;38.082;2022-09-09T22:56:23;100559.97;;;10.83;47.02
55990;BME280;41875;55.806;38.082;2022-09-09T22:58:52;100556.97;;;11.07;46.32
55990;BME280;41875;55.806;38.082;2022-09-09T23:01:23;100557.66;;;11.00;46.29
55990;BME280;41875;55.806;38.082;2022-09-09T23:03:53;100556.16;;;11.07;46.22
55990;BME280;41875;55.806;38.082;2022-09-09T23:06:27;100562.53;;;11.04;46.31
55990;BME280;41875;55.806;38.082;2022-09-09T23:08:57;100561.41;;;10.87;46.67
55990;BME280;41875;55.806;38.082;2022-09-09T23:11:28;100559.56;;;10.78;46.90
55990;BME280;41875;55.806;38.082;2022-09-09T23:13:59;100563.03;;;10.78;46.71
55990;BME280;41875;55.806;38.082;2022-09-09T23:16:30;100559.59;;;10.88;46.39
55990;BME280;41875;55.806;38.082;2022-09-09T23:18:59;100558.28;;;10.72;46.63